createdAt,value
2022-12-27T00:02:46.465Z,89.23
2022-12-27T00:05:48.916Z,89.10
2022-12-27T00:08:51.312Z,88.62
2022-12-27T00:11:57.974Z,88.28
2022-12-27T00:15:02.889Z,89.10
2022-12-27T00:18:04.977Z,89.12
2022-12-27T00:21:08.688Z,88.61
2022-12-27T00:24:11.027Z,89.28
2022-12-27T00:27:12.979Z,89.28
2022-12-27T00:30:15.898Z,89.14
2022-12-27T00:33:18.014Z,89.85
2022-12-27T00:36:22.720Z,90.35
2022-12-27T00:39:24.933Z,89.73
2022-12-27T00:42:27.030Z,89.80
2022-12-27T00:45:29.152Z,90.16
2022-12-27T00:48:31.293Z,89.99
2022-12-27T00:51:33.802Z,89.58
2022-12-27T00:54:36.209Z,88.72
2022-12-27T00:57:38.468Z,89.04
2022-12-27T01:00:40.655Z,89.20
2022-12-27T01:03:42.907Z,87.77
2022-12-27T01:06:45.178Z,88.79
2022-12-27T01:09:47.601Z,88.76
2022-12-27T01:12:49.748Z,89.38
2022-12-27T01:15:51.638Z,88.72
2022-12-27T01:18:54.425Z,88.20
2022-12-27T01:21:56.455Z,88.47
2022-12-27T01:24:58.466Z,89.00
2022-12-27T01:28:00.373Z,89.25
2022-12-27T01:31:07.042Z,88.58
2022-12-27T01:34:08.971Z,89.18
2022-12-27T01:37:10.864Z,88.19
2022-12-27T01:40:13.328Z,88.07
2022-12-27T01:43:18.088Z,88.50
2022-12-27T01:46:20.238Z,88.57
2022-12-27T01:49:22.748Z,88.25
2022-12-27T01:52:34.431Z,87.73
2022-12-27T01:55:46.091Z,86.96
2022-12-27T01:59:14.460Z,87.66
2022-12-27T02:02:16.796Z,87.37
2022-12-27T02:05:21.110Z,86.58
2022-12-27T02:08:37.642Z,86.44
2022-12-27T02:11:52.089Z,86.60
2022-12-27T02:14:54.134Z,86.55
2022-12-27T02:17:56.115Z,87.40
2022-12-27T02:21:27.379Z,87.04
2022-12-27T02:24:53.844Z,86.55
2022-12-27T02:28:35.639Z,87.03
2022-12-27T02:31:59.602Z,87.03
2022-12-27T02:35:09.855Z,87.43
2022-12-27T02:38:14.380Z,87.12
2022-12-27T02:41:36.351Z,86.65
2022-12-27T02:44:56.958Z,87.13
2022-12-27T02:48:18.442Z,86.55
2022-12-27T02:51:57.103Z,86.96
2022-12-27T02:55:21.860Z,86.10
2022-12-27T02:58:52.221Z,86.20
2022-12-27T03:02:43.538Z,85.48
2022-12-27T03:06:16.158Z,85.99
2022-12-27T03:09:46.142Z,85.94
2022-12-27T03:13:26.096Z,85.66
2022-12-27T03:16:41.516Z,85.89
2022-12-27T03:20:14.569Z,85.76
2022-12-27T03:23:36.439Z,86.22
2022-12-27T03:26:42.410Z,87.28
2022-12-27T03:30:31.171Z,86.38
2022-12-27T03:33:36.464Z,87.50
2022-12-27T03:36:57.177Z,88.19
2022-12-27T03:40:16.010Z,87.81
2022-12-27T03:43:17.964Z,87.62
2022-12-27T03:46:34.539Z,88.20
2022-12-27T03:49:41.308Z,88.37
2022-12-27T03:52:55.388Z,88.53
2022-12-27T03:55:57.941Z,89.37
2022-12-27T03:59:01.173Z,88.85
2022-12-27T04:02:06.124Z,88.50
2022-12-27T04:05:08.708Z,87.07
2022-12-27T04:08:29.172Z,87.53
2022-12-27T04:11:49.444Z,87.53
2022-12-27T04:15:10.243Z,87.30
2022-12-27T04:18:30.742Z,87.48
2022-12-27T04:21:51.479Z,86.90
2022-12-27T04:25:12.562Z,87.21
2022-12-27T04:28:33.133Z,87.64
2022-12-27T04:31:53.902Z,87.78
2022-12-27T04:34:55.868Z,87.25
2022-12-27T04:37:58.682Z,87.08
2022-12-27T04:41:19.143Z,87.19
2022-12-27T04:44:39.813Z,86.53
2022-12-27T04:48:00.109Z,86.45
2022-12-27T04:51:20.801Z,86.75
2022-12-27T04:54:44.087Z,86.76
2022-12-27T04:57:46.320Z,85.81
2022-12-27T05:01:13.873Z,86.13
2022-12-27T05:04:16.454Z,85.46
2022-12-27T05:07:36.826Z,85.79
2022-12-27T05:10:57.362Z,84.11
2022-12-27T05:14:02.516Z,83.28
2022-12-27T05:17:04.429Z,82.88
2022-12-27T05:20:07.017Z,80.98
2022-12-27T05:23:27.971Z,80.13
2022-12-27T05:26:31.278Z,79.86
2022-12-27T05:29:36.079Z,80.25
2022-12-27T05:32:37.978Z,80.00
2022-12-27T05:35:40.551Z,79.79
2022-12-27T05:38:42.402Z,80.54
2022-12-27T05:41:44.519Z,80.33
2022-12-27T05:44:46.497Z,80.19
2022-12-27T05:47:48.448Z,79.81
2022-12-27T05:50:50.404Z,80.17
2022-12-27T05:53:52.441Z,79.42
2022-12-27T05:56:54.327Z,78.86
2022-12-27T05:59:56.349Z,79.28
2022-12-27T06:02:58.404Z,79.27
2022-12-27T06:06:03.364Z,80.74
2022-12-27T06:09:05.451Z,82.23
2022-12-27T06:12:07.523Z,81.42
2022-12-27T06:15:11.896Z,82.81
2022-12-27T06:18:15.119Z,81.10
2022-12-27T06:21:20.389Z,81.04
2022-12-27T06:24:22.639Z,80.74
2022-12-27T06:27:24.581Z,79.62
2022-12-27T06:30:28.432Z,79.34
2022-12-27T06:33:33.648Z,78.55
2022-12-27T06:36:35.592Z,79.05
2022-12-27T06:39:38.155Z,78.74
2022-12-27T06:42:41.507Z,77.62
2022-12-27T06:45:43.478Z,78.80
2022-12-27T06:48:48.632Z,78.84
2022-12-27T06:51:55.816Z,78.72
2022-12-27T06:55:01.690Z,79.54
2022-12-27T06:58:03.870Z,79.73
2022-12-27T07:01:13.532Z,79.09
2022-12-27T07:04:16.459Z,79.62
2022-12-27T07:07:18.414Z,76.59
2022-12-27T07:10:20.743Z,74.15
2022-12-27T07:13:23.353Z,72.85
2022-12-27T07:16:27.205Z,71.80
2022-12-27T07:19:29.290Z,72.23
2022-12-27T07:22:31.432Z,72.18
2022-12-27T07:25:33.589Z,70.91
2022-12-27T07:28:36.311Z,68.70
2022-12-27T07:31:38.505Z,68.41
2022-12-27T07:34:40.450Z,68.82
2022-12-27T07:37:42.473Z,69.41
2022-12-27T07:40:44.760Z,67.49
2022-12-27T07:43:47.555Z,66.55
2022-12-27T07:46:49.550Z,66.42
2022-12-27T07:49:51.841Z,65.24
2022-12-27T07:52:55.292Z,66.36
2022-12-27T07:55:57.659Z,64.98
2022-12-27T07:59:01.787Z,64.35
2022-12-27T08:02:04.541Z,64.11
2022-12-27T08:05:07.030Z,63.45
2022-12-27T08:08:09.436Z,63.71
2022-12-27T08:11:11.552Z,63.05
2022-12-27T08:14:13.591Z,63.30
2022-12-27T08:17:22.180Z,64.06
2022-12-27T08:20:24.127Z,63.85
2022-12-27T08:23:26.048Z,64.82
2022-12-27T08:26:28.024Z,64.48
2022-12-27T08:29:30.260Z,65.43
2022-12-27T08:32:32.416Z,65.96
2022-12-27T08:35:52.689Z,66.33
2022-12-27T08:38:55.960Z,66.77
2022-12-27T08:41:59.013Z,66.20
2022-12-27T08:45:01.095Z,67.18
2022-12-27T08:48:03.670Z,66.79
2022-12-27T08:51:12.935Z,66.41
2022-12-27T08:54:16.695Z,66.58
2022-12-27T08:57:18.851Z,66.15
2022-12-27T09:00:21.169Z,65.13
2022-12-27T09:03:23.440Z,65.15
2022-12-27T09:06:27.748Z,64.86
2022-12-27T09:09:30.016Z,64.93
2022-12-27T09:12:33.342Z,63.26
2022-12-27T09:15:37.214Z,64.20
2022-12-27T09:18:40.853Z,63.24
2022-12-27T09:21:44.181Z,62.74
2022-12-27T09:24:46.694Z,62.30
2022-12-27T09:27:48.902Z,61.01
2022-12-27T09:30:51.320Z,59.70
2022-12-27T09:33:54.255Z,59.98
2022-12-27T09:36:57.196Z,60.48
2022-12-27T09:40:01.113Z,57.58
2022-12-27T09:43:22.200Z,57.66
2022-12-27T09:46:33.145Z,57.86
2022-12-27T09:49:41.176Z,56.44
2022-12-27T09:53:21.131Z,54.75
2022-12-27T09:56:47.394Z,54.61
2022-12-27T09:59:57.818Z,52.03
2022-12-27T10:03:06.396Z,52.41
2022-12-27T10:06:50.243Z,53.86
2022-12-27T10:10:18.421Z,54.54
2022-12-27T10:13:54.504Z,55.33
2022-12-27T10:17:10.950Z,55.50
2022-12-27T10:20:31.252Z,56.58
2022-12-27T10:23:36.505Z,55.89
2022-12-27T10:26:39.293Z,55.85
2022-12-27T10:29:41.875Z,54.57
2022-12-27T10:32:44.980Z,55.92
2022-12-27T10:35:48.725Z,54.79
2022-12-27T10:38:51.043Z,53.58
2022-12-27T10:42:23.882Z,50.94
2022-12-27T10:45:42.833Z,49.51
2022-12-27T10:52:24.431Z,48.81
2022-12-27T10:55:39.622Z,49.60
2022-12-27T10:58:58.124Z,49.99
2022-12-27T11:02:00.884Z,49.29
2022-12-27T11:05:04.502Z,49.56
2022-12-27T11:08:36.039Z,48.13
2022-12-27T11:11:38.197Z,49.59
2022-12-27T11:15:02.243Z,50.58
2022-12-27T11:18:35.206Z,52.11
2022-12-27T11:21:40.823Z,52.45
2022-12-27T11:24:48.418Z,52.19
2022-12-27T11:27:54.865Z,52.59
2022-12-27T11:31:01.047Z,53.07
2022-12-27T11:34:15.654Z,52.88
2022-12-27T11:37:22.625Z,54.28
2022-12-27T11:40:34.770Z,54.02
2022-12-27T11:43:54.589Z,54.33
2022-12-27T11:47:07.554Z,54.13
2022-12-27T11:50:27.925Z,54.20
2022-12-27T11:53:46.947Z,54.99
2022-12-27T11:56:55.859Z,54.31
2022-12-27T12:00:16.662Z,53.98
2022-12-27T12:03:27.905Z,52.87
2022-12-27T12:06:54.934Z,52.18
2022-12-27T12:09:56.979Z,51.67
2022-12-27T12:13:14.994Z,51.72
2022-12-27T12:16:40.988Z,52.41
2022-12-27T12:19:52.176Z,52.70
2022-12-27T12:23:04.219Z,51.25
2022-12-27T12:26:13.979Z,51.37
2022-12-27T12:29:41.775Z,50.75
2022-12-27T12:32:53.185Z,50.77
2022-12-27T12:36:26.523Z,51.94
2022-12-27T12:39:51.932Z,51.37
2022-12-27T12:42:53.859Z,50.81
2022-12-27T12:46:02.064Z,51.46
2022-12-27T12:49:33.343Z,50.42
2022-12-27T12:53:01.403Z,50.01
2022-12-27T12:56:30.052Z,50.71
2022-12-27T12:59:41.003Z,50.29
2022-12-27T13:03:22.623Z,50.01
2022-12-27T13:06:44.270Z,49.61
2022-12-27T13:10:30.916Z,50.13
2022-12-27T13:14:04.921Z,49.12
2022-12-27T13:17:24.407Z,49.39
2022-12-27T13:20:54.173Z,49.49
2022-12-27T13:24:14.920Z,49.51
2022-12-27T13:27:42.290Z,50.21
2022-12-27T13:31:06.724Z,49.71
2022-12-27T13:34:24.539Z,50.85
2022-12-27T13:37:57.468Z,50.37
2022-12-27T13:41:16.426Z,51.09
2022-12-27T13:44:31.155Z,50.82
2022-12-27T13:47:48.799Z,50.27
2022-12-27T13:51:02.576Z,50.20
2022-12-27T13:54:29.937Z,51.52
2022-12-27T13:58:14.657Z,50.99
2022-12-27T14:02:07.334Z,50.88
2022-12-27T14:05:37.580Z,51.02
2022-12-27T14:09:08.775Z,50.89
2022-12-27T14:12:46.332Z,51.73
2022-12-27T14:16:11.225Z,51.92
2022-12-27T14:19:50.857Z,52.40
2022-12-27T14:23:15.045Z,51.11
2022-12-27T14:26:26.209Z,51.56
2022-12-27T14:29:56.090Z,52.21
2022-12-27T14:33:29.974Z,52.84
2022-12-27T14:36:56.790Z,52.33
2022-12-27T14:40:34.853Z,52.53
2022-12-27T14:44:17.630Z,52.98
2022-12-27T14:47:47.533Z,52.24
2022-12-27T14:51:50.373Z,51.55
2022-12-27T14:55:18.107Z,52.96
2022-12-27T14:58:39.208Z,52.38
2022-12-27T15:02:09.479Z,53.41
2022-12-27T15:05:14.710Z,53.63
2022-12-27T15:08:26.070Z,54.03
2022-12-27T15:11:40.437Z,53.79
2022-12-27T15:14:57.709Z,53.39
2022-12-27T15:18:30.527Z,53.03
2022-12-27T15:22:03.435Z,53.29
2022-12-27T15:25:21.740Z,52.80
2022-12-27T15:28:39.552Z,53.36
2022-12-27T15:31:55.955Z,53.27
2022-12-27T15:35:37.440Z,53.48
2022-12-27T15:38:42.805Z,55.00
2022-12-27T15:42:21.253Z,55.45
2022-12-27T15:45:47.903Z,53.21
2022-12-27T15:49:27.770Z,53.10
2022-12-27T15:52:32.902Z,53.29
2022-12-27T15:56:00.532Z,52.84
2022-12-27T15:59:36.934Z,52.23
2022-12-27T16:02:59.373Z,53.00
2022-12-27T16:06:02.580Z,52.27
2022-12-27T16:09:23.532Z,53.00
2022-12-27T16:12:52.918Z,52.18
2022-12-27T16:15:56.568Z,52.33
2022-12-27T16:19:04.879Z,53.24
2022-12-27T16:22:24.871Z,52.95
2022-12-27T16:25:31.949Z,52.56
2022-12-27T16:28:36.339Z,52.47
2022-12-27T16:31:45.894Z,52.84
2022-12-27T16:34:54.463Z,53.22
2022-12-27T16:37:56.831Z,53.06
2022-12-27T16:41:15.510Z,52.72
2022-12-27T16:44:24.754Z,52.35
2022-12-27T16:48:08.165Z,52.05
2022-12-27T16:51:13.935Z,52.31
2022-12-27T16:54:26.220Z,52.99
2022-12-27T16:57:28.919Z,52.80
2022-12-27T17:00:40.550Z,52.28
2022-12-27T17:03:46.351Z,52.42
2022-12-27T17:06:54.535Z,53.12
2022-12-27T17:10:16.733Z,53.03
2022-12-27T17:13:43.063Z,52.89
2022-12-27T17:16:52.204Z,53.67
2022-12-27T17:20:00.203Z,53.21
2022-12-27T17:23:04.436Z,53.45
2022-12-27T17:26:32.689Z,53.20
2022-12-27T17:30:08.947Z,53.95
2022-12-27T17:33:22.021Z,53.46
2022-12-27T17:36:40.674Z,53.13
2022-12-27T17:39:58.699Z,53.60
2022-12-27T17:43:37.854Z,53.35
2022-12-27T17:46:45.687Z,53.67
2022-12-27T17:49:48.646Z,54.06
2022-12-27T17:53:33.790Z,54.07
2022-12-27T17:57:03.521Z,54.77
2022-12-27T18:00:21.555Z,54.75
2022-12-27T18:03:29.477Z,53.97
2022-12-27T18:06:32.196Z,55.79
2022-12-27T18:09:45.710Z,54.52
2022-12-27T18:12:53.803Z,54.51
2022-12-27T18:15:57.408Z,54.93
2022-12-27T18:19:02.051Z,54.83
2022-12-27T18:22:04.352Z,55.21
2022-12-27T18:25:24.468Z,54.66
2022-12-27T18:28:33.671Z,55.56
2022-12-27T18:31:52.016Z,56.63
2022-12-27T18:35:00.359Z,56.51
2022-12-27T18:38:08.733Z,56.54
2022-12-27T18:41:15.707Z,56.22
2022-12-27T18:44:46.538Z,57.07
2022-12-27T18:47:52.742Z,57.46
2022-12-27T18:50:58.407Z,57.09
2022-12-27T18:54:02.846Z,57.25
2022-12-27T18:57:24.943Z,57.50
2022-12-27T19:00:30.731Z,57.39
2022-12-27T19:03:40.258Z,57.58
2022-12-27T19:06:53.812Z,58.40
2022-12-27T19:10:01.998Z,58.25
2022-12-27T19:13:04.952Z,57.02
2022-12-27T19:16:07.417Z,59.47
2022-12-27T19:19:25.032Z,58.64
2022-12-27T19:22:42.602Z,60.00
2022-12-27T19:26:00.763Z,60.99
2022-12-27T19:29:26.105Z,59.10
2022-12-27T19:32:34.563Z,60.65
2022-12-27T19:35:37.103Z,59.83
2022-12-27T19:38:46.001Z,60.60
2022-12-27T19:41:51.547Z,59.78
2022-12-27T19:44:53.860Z,59.91
2022-12-27T19:47:56.671Z,61.08
2022-12-27T19:50:59.544Z,59.86
2022-12-27T19:54:01.908Z,60.52
2022-12-27T19:57:05.309Z,60.52
2022-12-27T20:00:17.619Z,62.16
2022-12-27T20:03:20.697Z,62.44
2022-12-27T20:06:26.898Z,63.09
2022-12-27T20:09:31.979Z,63.70
2022-12-27T20:12:34.528Z,63.29
2022-12-27T20:15:36.695Z,63.36
2022-12-27T20:18:40.624Z,62.17
2022-12-27T20:21:44.267Z,62.91
2022-12-27T20:24:47.349Z,65.91
2022-12-27T20:27:50.056Z,65.68
2022-12-27T20:30:52.724Z,64.38
2022-12-27T20:33:55.962Z,64.67
2022-12-27T20:36:59.320Z,64.64
2022-12-27T20:40:07.512Z,65.79
2022-12-27T20:43:17.031Z,63.95
2022-12-27T20:46:19.425Z,64.00
2022-12-27T20:49:23.659Z,63.91
2022-12-27T20:52:31.014Z,64.38
2022-12-27T20:55:34.576Z,64.97
2022-12-27T20:58:37.208Z,65.72
2022-12-27T21:01:39.866Z,64.77
2022-12-27T21:04:42.757Z,65.20
2022-12-27T21:07:45.899Z,65.37
2022-12-27T21:10:48.391Z,65.81
2022-12-27T21:13:50.635Z,65.93
2022-12-27T21:16:52.972Z,66.28
2022-12-27T21:19:55.157Z,66.24
2022-12-27T21:22:57.409Z,66.39
2022-12-27T21:26:09.087Z,66.73
2022-12-27T21:29:12.402Z,66.84
2022-12-27T21:32:14.648Z,67.02
2022-12-27T21:35:17.081Z,66.71
2022-12-27T21:38:19.671Z,66.23
2022-12-27T21:41:28.239Z,66.67
2022-12-27T21:44:30.366Z,66.24
2022-12-27T21:47:33.062Z,66.40
2022-12-27T21:50:37.400Z,67.23
2022-12-27T21:53:40.637Z,67.00
2022-12-27T21:56:43.380Z,67.98
2022-12-27T21:59:45.558Z,68.54
2022-12-27T22:02:50.152Z,67.66
2022-12-27T22:05:52.395Z,67.80
2022-12-27T22:09:01.106Z,67.48
2022-12-27T22:12:03.256Z,67.86
2022-12-27T22:15:05.640Z,68.28
2022-12-27T22:18:07.536Z,68.68
2022-12-27T22:21:12.987Z,66.98
2022-12-27T22:24:19.522Z,67.10
2022-12-27T22:27:22.451Z,67.68
2022-12-27T22:30:24.784Z,67.27
2022-12-27T22:33:27.151Z,68.51
2022-12-27T22:36:29.994Z,68.14
2022-12-27T22:39:33.209Z,67.00
2022-12-27T22:42:35.678Z,67.04
2022-12-27T22:45:42.021Z,67.41
2022-12-27T22:48:44.173Z,67.42
2022-12-27T22:51:46.427Z,67.74
2022-12-27T22:55:03.936Z,67.17
2022-12-27T22:58:09.161Z,67.15
2022-12-27T23:01:16.522Z,67.62
2022-12-27T23:04:19.016Z,67.43
2022-12-27T23:07:21.242Z,66.90
2022-12-27T23:10:43.405Z,67.00
2022-12-27T23:13:46.593Z,67.43
2022-12-27T23:16:50.126Z,67.11
2022-12-27T23:19:52.280Z,67.26
2022-12-27T23:22:54.328Z,67.35
2022-12-27T23:25:56.492Z,67.69
2022-12-27T23:28:59.462Z,67.46
2022-12-27T23:32:01.709Z,68.47
2022-12-27T23:35:03.958Z,69.03
2022-12-27T23:38:06.824Z,68.42
2022-12-27T23:41:16.159Z,68.65
2022-12-27T23:44:32.915Z,69.67
2022-12-27T23:47:36.736Z,69.76
2022-12-27T23:50:38.986Z,70.04
2022-12-27T23:53:41.860Z,69.76
2022-12-27T23:56:43.892Z,69.42
2022-12-27T23:59:46.083Z,69.16
